createdAt,value
2018-03-16T00:02:21.913Z,21.62
2018-03-16T00:04:50.435Z,19.40
2018-03-16T00:07:18.843Z,19.33
2018-03-16T00:09:47.133Z,23.10
2018-03-16T00:12:15.490Z,13.03
2018-03-16T00:14:43.823Z,22.87
2018-03-16T00:17:12.442Z,21.23
2018-03-16T00:19:40.848Z,15.97
2018-03-16T00:22:10.017Z,18.90
2018-03-16T00:24:38.360Z,16.12
2018-03-16T00:27:06.719Z,16.67
2018-03-16T00:29:35.186Z,17.97
2018-03-16T00:32:03.738Z,14.87
2018-03-16T00:34:32.034Z,11.02
2018-03-16T00:37:01.100Z,21.02
2018-03-16T00:39:29.612Z,19.23
2018-03-16T00:41:57.990Z,16.83
2018-03-16T00:44:26.323Z,16.17
2018-03-16T00:46:54.646Z,16.73
2018-03-16T00:49:22.943Z,17.83
2018-03-16T00:51:51.234Z,14.70
2018-03-16T00:54:19.562Z,16.80
2018-03-16T00:56:48.617Z,16.73
2018-03-16T00:59:16.955Z,15.02
2018-03-16T01:01:45.471Z,13.82
2018-03-16T01:04:13.838Z,11.25
2018-03-16T01:06:42.343Z,11.38
2018-03-16T01:09:10.781Z,16.62
2018-03-16T01:11:39.381Z,15.73
2018-03-16T01:14:08.708Z,13.05
2018-03-16T01:16:37.013Z,9.43
2018-03-16T01:19:05.408Z,14.45
2018-03-16T01:21:33.697Z,10.07
2018-03-16T01:24:02.231Z,11.80
2018-03-16T01:26:30.535Z,13.20
2018-03-16T01:28:59.128Z,10.85
2018-03-16T01:31:27.484Z,12.88
2018-03-16T01:33:55.951Z,12.05
2018-03-16T01:36:24.358Z,8.48
2018-03-16T01:38:52.663Z,11.63
2018-03-16T01:41:20.990Z,9.82
2018-03-16T01:43:50.051Z,9.18
2018-03-16T01:46:18.608Z,8.65
2018-03-16T01:48:46.903Z,9.30
2018-03-16T01:51:15.195Z,10.60
2018-03-16T01:53:43.790Z,9.77
2018-03-16T01:56:12.195Z,8.25
2018-03-16T01:58:40.714Z,6.83
2018-03-16T02:01:09.314Z,8.52
2018-03-16T02:03:37.745Z,10.70
2018-03-16T02:06:06.848Z,9.18
2018-03-16T02:08:35.169Z,12.40
2018-03-16T02:11:04.246Z,13.43
2018-03-16T02:13:32.566Z,9.55
2018-03-16T02:16:00.900Z,11.27
2018-03-16T02:18:29.994Z,10.30
2018-03-16T02:20:58.358Z,9.47
2018-03-16T02:23:26.988Z,13.27
2018-03-16T02:25:55.315Z,12.00
2018-03-16T02:28:23.702Z,8.65
2018-03-16T02:30:52.025Z,9.02
2018-03-16T02:33:20.316Z,11.52
2018-03-16T02:35:48.646Z,10.35
2018-03-16T02:38:17.716Z,10.15
2018-03-16T02:40:46.002Z,9.18
2018-03-16T02:43:14.486Z,10.95
2018-03-16T02:45:42.905Z,12.40
2018-03-16T02:48:11.352Z,9.65
2018-03-16T02:50:40.060Z,7.53
2018-03-16T02:53:08.967Z,9.25
2018-03-16T02:55:37.578Z,14.02
2018-03-16T02:58:05.958Z,13.10
2018-03-16T03:00:34.493Z,9.70
2018-03-16T03:03:02.807Z,11.65
2018-03-16T03:05:31.102Z,13.40
2018-03-16T03:07:59.462Z,12.80
2018-03-16T03:10:27.943Z,8.48
2018-03-16T03:12:57.119Z,9.90
2018-03-16T03:15:25.639Z,7.75
2018-03-16T03:17:54.035Z,12.07
2018-03-16T03:20:22.326Z,9.05
2018-03-16T03:22:50.655Z,10.18
2018-03-16T03:25:18.964Z,12.68
2018-03-16T03:27:47.306Z,8.48
2018-03-16T03:30:15.595Z,11.50
2018-03-16T03:32:44.045Z,9.82
2018-03-16T03:35:12.379Z,9.20
2018-03-16T03:37:40.766Z,9.75
2018-03-16T03:40:09.259Z,10.20
2018-03-16T03:42:38.593Z,13.57
2018-03-16T03:45:08.257Z,13.38
2018-03-16T03:47:37.347Z,12.95
2018-03-16T03:50:05.658Z,10.60
2018-03-16T03:52:33.994Z,13.80
2018-03-16T03:55:03.290Z,9.18
2018-03-16T03:57:31.689Z,13.80
2018-03-16T03:59:59.970Z,9.57
2018-03-16T04:02:28.446Z,9.23
2018-03-16T04:04:56.734Z,11.65
2018-03-16T04:07:25.034Z,13.07
2018-03-16T04:09:54.132Z,13.60
2018-03-16T04:12:22.423Z,12.60
2018-03-16T04:14:50.785Z,10.85
2018-03-16T04:17:19.117Z,14.18
2018-03-16T04:19:47.592Z,11.32
2018-03-16T04:22:15.878Z,10.48
2018-03-16T04:24:44.335Z,10.88
2018-03-16T04:27:12.874Z,6.75
2018-03-16T04:29:42.447Z,8.90
2018-03-16T04:32:10.948Z,9.80
2018-03-16T04:34:39.331Z,11.15
2018-03-16T04:37:07.869Z,10.85
2018-03-16T04:39:36.203Z,5.47
2018-03-16T04:42:04.790Z,10.32
2018-03-16T04:44:33.084Z,11.00
2018-03-16T04:47:01.375Z,11.75
2018-03-16T04:49:29.754Z,9.00
2018-03-16T04:51:58.928Z,12.40
2018-03-16T04:54:27.507Z,11.98
2018-03-16T04:56:56.644Z,9.93
2018-03-16T04:59:24.971Z,12.63
2018-03-16T05:01:53.304Z,12.80
2018-03-16T05:04:22.394Z,11.18
2018-03-16T05:06:50.696Z,11.55
2018-03-16T05:09:20.531Z,8.45
2018-03-16T05:11:48.851Z,9.45
2018-03-16T05:14:17.171Z,11.05
2018-03-16T05:16:46.272Z,11.57
2018-03-16T05:19:14.591Z,10.70
2018-03-16T05:21:43.056Z,10.20
2018-03-16T05:24:11.573Z,9.82
2018-03-16T05:26:40.738Z,8.02
2018-03-16T05:29:09.215Z,8.07
2018-03-16T05:31:38.414Z,7.22
2018-03-16T05:34:06.734Z,9.95
2018-03-16T05:36:35.159Z,10.55
2018-03-16T05:39:03.459Z,9.70
2018-03-16T05:41:32.517Z,7.70
2018-03-16T05:44:00.879Z,10.05
2018-03-16T05:46:29.942Z,13.30
2018-03-16T05:48:58.426Z,10.05
2018-03-16T05:51:26.850Z,6.50
2018-03-16T05:53:55.191Z,12.07
2018-03-16T05:56:24.612Z,9.48
2018-03-16T05:58:52.898Z,8.63
2018-03-16T06:01:21.191Z,9.38
2018-03-16T06:03:49.523Z,9.95
2018-03-16T06:06:17.823Z,9.20
2018-03-16T06:08:46.114Z,5.87
2018-03-16T06:11:14.442Z,7.10
2018-03-16T06:13:43.627Z,8.70
2018-03-16T06:16:11.947Z,8.10
2018-03-16T06:18:40.539Z,9.10
2018-03-16T06:21:08.970Z,4.53
2018-03-16T06:23:37.381Z,8.73
2018-03-16T06:26:06.437Z,6.57
2018-03-16T06:28:34.730Z,7.80
2018-03-16T06:31:03.057Z,6.75
2018-03-16T06:33:31.350Z,10.77
2018-03-16T06:35:59.707Z,7.22
2018-03-16T06:38:28.079Z,4.18
2018-03-16T06:40:56.395Z,5.28
2018-03-16T06:43:24.735Z,5.78
2018-03-16T06:45:53.786Z,6.03
2018-03-16T06:48:22.074Z,8.10
2018-03-16T06:50:50.403Z,7.28
2018-03-16T06:53:18.690Z,7.93
2018-03-16T06:55:47.113Z,8.80
2018-03-16T06:58:15.453Z,7.93
2018-03-16T07:00:44.636Z,6.82
2018-03-16T07:03:13.150Z,8.30
2018-03-16T07:05:41.855Z,6.45
2018-03-16T07:08:10.290Z,7.97
2018-03-16T07:10:39.415Z,6.10
2018-03-16T07:13:07.905Z,7.03
2018-03-16T07:15:37.212Z,6.40
2018-03-16T07:18:06.306Z,6.55
2018-03-16T07:20:34.604Z,6.43
2018-03-16T07:23:03.252Z,6.10
2018-03-16T07:25:31.533Z,7.95
2018-03-16T07:27:59.822Z,7.95
2018-03-16T07:30:28.274Z,5.57
2018-03-16T07:32:56.690Z,8.63
2018-03-16T07:35:25.947Z,6.37
2018-03-16T07:37:54.274Z,8.55
2018-03-16T07:40:22.561Z,7.72
2018-03-16T07:42:50.934Z,6.55
2018-03-16T07:48:23.126Z,7.12
2018-03-16T07:50:52.130Z,5.00
2018-03-16T07:53:20.662Z,6.60
2018-03-16T07:55:49.711Z,7.12
2018-03-16T07:58:18.775Z,7.03
2018-03-16T08:00:47.103Z,7.53
2018-03-16T08:03:15.395Z,6.55
2018-03-16T08:05:43.799Z,7.57
2018-03-16T08:08:12.140Z,5.55
2018-03-16T08:10:41.553Z,7.05
2018-03-16T08:13:09.939Z,5.05
2018-03-16T08:15:39.110Z,7.50
2018-03-16T08:18:07.570Z,5.00
2018-03-16T08:20:35.870Z,7.50
2018-03-16T08:23:04.202Z,4.43
2018-03-16T08:25:32.527Z,5.22
2018-03-16T08:28:01.652Z,4.80
2018-03-16T08:30:30.722Z,6.40
2018-03-16T08:32:59.134Z,6.82
2018-03-16T08:35:27.425Z,5.62
2018-03-16T08:37:56.610Z,7.97
2018-03-16T08:40:24.974Z,8.18
2018-03-16T08:42:53.302Z,7.45
2018-03-16T08:45:21.594Z,4.90
2018-03-16T08:47:50.682Z,7.62
2018-03-16T08:50:18.974Z,8.52
2018-03-16T08:52:47.259Z,8.15
2018-03-16T08:55:15.774Z,7.00
2018-03-16T08:57:44.167Z,5.12
2018-03-16T09:00:12.547Z,6.93
2018-03-16T09:02:41.047Z,6.70
2018-03-16T09:05:09.775Z,5.93
2018-03-16T09:07:39.066Z,7.28
2018-03-16T09:10:07.529Z,5.85
2018-03-16T09:12:35.866Z,7.70
2018-03-16T09:15:04.153Z,6.80
2018-03-16T09:17:32.479Z,6.70
2018-03-16T09:20:01.620Z,6.57
2018-03-16T09:22:30.051Z,6.57
2018-03-16T09:24:58.410Z,6.20
2018-03-16T09:27:27.582Z,7.50
2018-03-16T09:29:55.906Z,5.57
2018-03-16T09:32:25.039Z,5.07
2018-03-16T09:34:53.420Z,7.60
2018-03-16T09:37:21.688Z,7.50
2018-03-16T09:39:49.975Z,5.72
2018-03-16T09:42:18.302Z,6.60
2018-03-16T09:44:46.621Z,4.87
2018-03-16T09:47:14.907Z,6.22
2018-03-16T09:49:43.300Z,6.05
2018-03-16T09:52:11.578Z,6.65
2018-03-16T09:54:52.548Z,6.93
2018-03-16T09:57:20.868Z,7.87
2018-03-16T09:59:49.142Z,5.82
2018-03-16T10:02:17.458Z,3.55
2018-03-16T10:04:45.783Z,7.68
2018-03-16T10:07:14.838Z,4.22
2018-03-16T10:09:43.350Z,6.07
2018-03-16T10:12:11.750Z,4.30
2018-03-16T10:14:40.191Z,5.57
2018-03-16T10:17:08.570Z,7.28
2018-03-16T10:19:37.762Z,6.90
2018-03-16T10:22:06.098Z,7.20
2018-03-16T10:24:34.387Z,6.22
2018-03-16T10:27:02.707Z,8.32
2018-03-16T10:29:30.985Z,4.60
2018-03-16T10:31:59.323Z,8.00
2018-03-16T10:34:27.688Z,5.45
2018-03-16T10:36:55.970Z,4.25
2018-03-16T10:39:24.309Z,6.10
2018-03-16T10:41:52.598Z,5.40
2018-03-16T10:44:20.882Z,6.90
2018-03-16T10:46:49.215Z,7.40
2018-03-16T10:49:17.503Z,6.15
2018-03-16T10:51:45.826Z,6.93
2018-03-16T10:54:14.210Z,6.30
2018-03-16T10:56:42.567Z,5.87
2018-03-16T10:59:10.954Z,4.90
2018-03-16T11:01:45.000Z,6.50
2018-03-16T11:04:15.234Z,6.57
2018-03-16T11:06:46.411Z,4.37
2018-03-16T11:09:14.866Z,3.65
2018-03-16T11:11:43.242Z,5.50
2018-03-16T11:14:12.524Z,3.28
2018-03-16T11:16:41.004Z,6.60
2018-03-16T11:19:09.434Z,6.03
2018-03-16T11:21:37.782Z,4.95
2018-03-16T11:24:06.115Z,6.20
2018-03-16T11:26:34.394Z,5.70
2018-03-16T11:29:02.687Z,6.97
2018-03-16T11:31:31.774Z,5.93
2018-03-16T11:34:00.104Z,4.95
2018-03-16T11:36:29.242Z,4.75
2018-03-16T11:38:57.562Z,5.62
2018-03-16T11:41:26.017Z,8.23
2018-03-16T11:43:55.096Z,8.50
2018-03-16T11:46:23.394Z,6.40
2018-03-16T11:48:51.718Z,6.53
2018-03-16T11:51:20.283Z,7.12
2018-03-16T11:53:48.566Z,7.93
2018-03-16T11:56:17.617Z,6.87
2018-03-16T11:58:45.947Z,6.47
2018-03-16T12:01:14.302Z,6.85
2018-03-16T12:03:42.676Z,6.25
2018-03-16T12:06:11.140Z,7.25
2018-03-16T12:08:39.577Z,6.60
2018-03-16T12:11:08.027Z,10.15
2018-03-16T12:13:36.343Z,4.53
2018-03-16T12:16:04.625Z,8.30
2018-03-16T12:18:32.955Z,8.63
2018-03-16T12:21:01.246Z,10.70
2018-03-16T12:23:29.584Z,8.98
2018-03-16T12:25:57.987Z,11.15
2018-03-16T12:28:49.132Z,10.18
2018-03-16T12:30:54.667Z,8.95
2018-03-16T12:33:22.941Z,7.32
2018-03-16T12:35:51.651Z,6.15
2018-03-16T12:38:20.702Z,6.53
2018-03-16T12:40:49.026Z,6.25
2018-03-16T12:43:17.393Z,6.40
2018-03-16T12:45:45.679Z,5.28
2018-03-16T12:48:14.768Z,5.47
2018-03-16T12:50:43.155Z,7.85
2018-03-16T12:53:11.654Z,7.22
2018-03-16T12:55:40.925Z,6.25
2018-03-16T12:58:10.395Z,5.55
2018-03-16T13:00:38.814Z,8.27
2018-03-16T13:03:07.115Z,8.38
2018-03-16T13:05:35.455Z,5.75
2018-03-16T13:08:03.742Z,6.78
2018-03-16T13:10:32.075Z,8.68
2018-03-16T13:13:00.406Z,6.85
2018-03-16T13:15:28.795Z,7.55
2018-03-16T13:17:57.167Z,7.97
2018-03-16T13:20:25.512Z,7.57
2018-03-16T13:22:53.978Z,7.57
2018-03-16T13:25:23.033Z,8.43
2018-03-16T13:27:51.321Z,9.43
2018-03-16T13:30:19.650Z,5.43
2018-03-16T13:32:47.946Z,8.05
2018-03-16T13:35:16.272Z,4.70
2018-03-16T13:37:44.752Z,7.25
2018-03-16T13:40:14.215Z,5.55
2018-03-16T13:42:42.597Z,6.43
2018-03-16T13:45:11.016Z,6.25
2018-03-16T13:47:39.432Z,5.18
2018-03-16T13:50:07.874Z,5.68
2018-03-16T13:52:36.210Z,5.07
2018-03-16T13:55:04.498Z,6.65
2018-03-16T13:57:32.859Z,5.82
2018-03-16T14:00:01.143Z,5.90
2018-03-16T14:02:29.618Z,4.35
2018-03-16T14:04:57.944Z,5.80
2018-03-16T14:07:26.235Z,7.60
2018-03-16T14:09:54.556Z,7.55
2018-03-16T14:12:22.891Z,6.97
2018-03-16T14:14:51.941Z,7.82
2018-03-16T14:17:20.292Z,7.55
2018-03-16T14:19:48.591Z,6.75
2018-03-16T14:22:17.027Z,6.93
2018-03-16T14:24:46.087Z,7.35
2018-03-16T14:27:14.443Z,5.12
2018-03-16T14:29:44.691Z,5.62
2018-03-16T14:32:13.995Z,6.87
2018-03-16T14:34:43.464Z,5.68
2018-03-16T14:37:11.994Z,4.87
2018-03-16T14:39:40.515Z,5.57
2018-03-16T14:42:09.387Z,5.80
2018-03-16T14:44:38.028Z,3.87
2018-03-16T14:47:07.693Z,4.80
2018-03-16T14:49:36.184Z,6.25
2018-03-16T14:52:04.719Z,6.00
2018-03-16T14:54:33.862Z,6.20
2018-03-16T14:57:02.337Z,4.50
2018-03-16T14:59:31.451Z,5.62
2018-03-16T15:01:59.781Z,5.15
2018-03-16T15:04:28.954Z,4.90
2018-03-16T15:06:57.339Z,4.93
2018-03-16T15:09:25.736Z,6.70
2018-03-16T15:11:54.106Z,5.65
2018-03-16T15:14:23.204Z,4.10
2018-03-16T15:16:52.434Z,4.32
2018-03-16T15:19:20.766Z,4.85
2018-03-16T15:21:49.149Z,5.30
2018-03-16T15:24:17.390Z,5.35
2018-03-16T15:26:45.728Z,4.90
2018-03-16T15:29:14.014Z,3.95
2018-03-16T15:31:42.362Z,4.00
2018-03-16T15:34:10.777Z,3.00
2018-03-16T15:36:39.129Z,5.07
2018-03-16T15:39:07.536Z,3.67
2018-03-16T15:41:35.879Z,4.05
2018-03-16T15:44:04.931Z,5.03
2018-03-16T15:46:33.315Z,3.87
2018-03-16T15:49:01.634Z,3.05
2018-03-16T15:51:29.968Z,4.82
2018-03-16T15:53:58.264Z,5.03
2018-03-16T15:56:26.617Z,2.97
2018-03-16T15:58:54.930Z,4.55
2018-03-16T16:01:23.256Z,4.43
2018-03-16T16:03:52.577Z,4.65
2018-03-16T16:06:20.882Z,4.40
2018-03-16T16:08:49.225Z,3.40
2018-03-16T16:11:17.566Z,3.12
2018-03-16T16:13:45.860Z,3.40
2018-03-16T16:16:14.910Z,3.70
2018-03-16T16:18:43.314Z,4.60
2018-03-16T16:21:11.838Z,3.58
2018-03-16T16:23:41.038Z,4.97
2018-03-16T16:26:10.239Z,2.67
2018-03-16T16:28:38.687Z,4.22
2018-03-16T16:31:06.978Z,3.53
2018-03-16T16:33:36.848Z,3.28
2018-03-16T16:36:05.263Z,3.92
2018-03-16T16:38:33.583Z,3.55
2018-03-16T16:41:02.675Z,3.50
2018-03-16T16:43:30.998Z,2.95
2018-03-16T16:46:00.055Z,3.30
2018-03-16T16:48:28.415Z,3.42
2018-03-16T16:50:56.724Z,3.15
2018-03-16T16:53:25.071Z,3.60
2018-03-16T16:55:54.226Z,2.50
2018-03-16T16:58:22.515Z,2.60
2018-03-16T17:00:50.844Z,2.78
2018-03-16T17:03:19.931Z,2.92
2018-03-16T17:05:48.250Z,3.05
2018-03-16T17:08:16.580Z,1.70
2018-03-16T17:10:45.667Z,2.37
2018-03-16T17:13:13.976Z,2.20
2018-03-16T17:15:42.378Z,2.37
2018-03-16T17:18:11.752Z,3.58
2018-03-16T17:20:40.275Z,4.03
2018-03-16T17:23:08.804Z,2.05
2018-03-16T17:25:37.250Z,2.20
2018-03-16T17:28:06.345Z,3.78
2018-03-16T17:30:34.863Z,3.00
2018-03-16T17:33:04.664Z,2.72
2018-03-16T17:35:33.096Z,2.87
2018-03-16T17:38:02.252Z,2.72
2018-03-16T17:40:30.507Z,2.70
2018-03-16T17:42:58.831Z,2.80
2018-03-16T17:45:28.017Z,3.37
2018-03-16T17:47:56.434Z,1.98
2018-03-16T17:50:25.010Z,2.45
2018-03-16T17:52:55.406Z,2.45
2018-03-16T17:55:23.787Z,2.85
2018-03-16T17:57:52.998Z,2.17
2018-03-16T18:00:21.770Z,2.50
2018-03-16T18:02:50.174Z,1.85
2018-03-16T18:05:18.514Z,2.00
2018-03-16T18:07:46.808Z,1.60
2018-03-16T18:10:15.196Z,3.53
2018-03-16T18:12:45.171Z,2.70
2018-03-16T18:15:14.830Z,1.90
2018-03-16T18:17:45.449Z,3.42
2018-03-16T18:20:15.541Z,1.95
2018-03-16T18:22:48.031Z,2.60
2018-03-16T18:25:18.355Z,2.25
2018-03-16T18:27:46.675Z,2.03
2018-03-16T18:30:14.995Z,2.37
2018-03-16T18:32:44.413Z,2.85
2018-03-16T18:35:12.669Z,1.77
2018-03-16T18:37:40.964Z,2.22
2018-03-16T18:40:09.284Z,2.97
2018-03-16T18:42:37.567Z,3.33
2018-03-16T18:45:06.108Z,2.22
2018-03-16T18:47:35.222Z,3.28
2018-03-16T18:50:03.550Z,2.25
2018-03-16T18:52:31.977Z,2.65
2018-03-16T18:55:01.122Z,1.80
2018-03-16T18:57:29.814Z,1.52
2018-03-16T18:59:58.285Z,2.10
2018-03-16T19:02:26.975Z,2.33
2018-03-16T19:04:55.554Z,1.80
2018-03-16T19:07:23.935Z,2.37
2018-03-16T19:09:52.254Z,2.10
2018-03-16T19:12:20.611Z,2.25
2018-03-16T19:14:48.914Z,1.67
2018-03-16T19:17:18.739Z,1.80
2018-03-16T19:19:47.344Z,1.90
2018-03-16T19:22:15.637Z,1.80
2018-03-16T19:24:43.955Z,1.48
2018-03-16T19:27:12.341Z,1.42
2018-03-16T19:29:40.730Z,2.00
2018-03-16T19:32:09.123Z,1.67
2018-03-16T19:34:37.440Z,1.55
2018-03-16T19:37:05.864Z,1.73
2018-03-16T19:39:34.154Z,1.45
2018-03-16T19:42:02.566Z,1.92
2018-03-16T19:44:30.958Z,2.33
2018-03-16T19:46:59.347Z,1.62
2018-03-16T19:49:27.732Z,1.70
2018-03-16T19:51:56.398Z,2.30
2018-03-16T19:54:24.833Z,3.15
2018-03-16T19:56:53.399Z,1.73
2018-03-16T19:59:21.859Z,1.48
2018-03-16T20:01:50.165Z,1.85
2018-03-16T20:04:18.464Z,1.55
2018-03-16T20:06:47.187Z,1.92
2018-03-16T20:09:15.476Z,1.45
2018-03-16T20:11:43.883Z,2.17
2018-03-16T20:14:13.132Z,2.00
2018-03-16T20:16:41.451Z,1.70
2018-03-16T20:19:09.871Z,1.48
2018-03-16T20:21:38.245Z,1.58
2018-03-16T20:24:06.596Z,1.23
2018-03-16T20:26:35.823Z,1.65
2018-03-16T20:29:04.314Z,1.80
2018-03-16T20:31:33.693Z,1.75
2018-03-16T20:34:02.170Z,1.75
2018-03-16T20:36:31.318Z,1.83
2018-03-16T20:38:59.952Z,1.23
2018-03-16T20:41:28.662Z,1.20
2018-03-16T20:43:57.951Z,2.10
2018-03-16T20:46:26.432Z,1.42
2018-03-16T20:48:55.801Z,1.00
2018-03-16T20:51:24.613Z,1.33
2018-03-16T20:53:53.091Z,1.30
2018-03-16T20:56:22.240Z,1.02
2018-03-16T20:58:50.917Z,2.40
2018-03-16T21:01:20.098Z,1.10
2018-03-16T21:03:48.404Z,1.12
2018-03-16T21:06:17.695Z,1.25
2018-03-16T21:08:46.022Z,2.10
2018-03-16T21:11:14.323Z,2.15
2018-03-16T21:13:42.619Z,1.35
2018-03-16T21:16:10.949Z,1.73
2018-03-16T21:18:39.278Z,2.00
2018-03-16T21:21:08.371Z,1.92
2018-03-16T21:23:36.702Z,2.30
2018-03-16T21:26:05.917Z,1.90
2018-03-16T21:28:34.334Z,1.50
2018-03-16T21:31:03.512Z,1.87
2018-03-16T21:33:32.027Z,1.77
2018-03-16T21:36:00.499Z,1.98
2018-03-16T21:38:29.166Z,1.98
2018-03-16T21:40:57.550Z,1.25
2018-03-16T21:43:27.118Z,1.92
2018-03-16T21:45:55.929Z,2.00
2018-03-16T21:48:24.406Z,2.47
2018-03-16T21:50:53.114Z,1.95
2018-03-16T21:53:21.820Z,1.85
2018-03-16T21:55:50.186Z,2.00
2018-03-16T21:58:18.527Z,1.92
2018-03-16T22:00:47.779Z,1.50
2018-03-16T22:03:16.282Z,1.95
2018-03-16T22:05:44.706Z,2.45
2018-03-16T22:08:13.984Z,2.17
2018-03-16T22:10:42.571Z,2.15
2018-03-16T22:13:10.858Z,1.20
2018-03-16T22:15:39.179Z,1.98
2018-03-16T22:18:07.575Z,1.23
2018-03-16T22:20:35.875Z,1.87
2018-03-16T22:23:04.322Z,2.55
2018-03-16T22:25:33.432Z,1.98
2018-03-16T22:28:02.623Z,1.60
2018-03-16T22:30:30.976Z,1.95
2018-03-16T22:33:00.580Z,1.40
2018-03-16T22:35:29.848Z,1.60
2018-03-16T22:37:59.644Z,2.10
2018-03-16T22:40:29.158Z,1.52
2018-03-16T22:42:58.160Z,1.60
2018-03-16T22:45:27.515Z,1.98
2018-03-16T22:47:56.312Z,1.70
2018-03-16T22:50:25.326Z,1.58
2018-03-16T22:52:54.064Z,1.85
2018-03-16T22:55:22.406Z,1.35
2018-03-16T22:57:50.799Z,1.83
2018-03-16T23:00:20.880Z,0.90
2018-03-16T23:02:49.227Z,1.90
2018-03-16T23:05:18.518Z,1.52
2018-03-16T23:07:47.023Z,1.50
2018-03-16T23:10:15.619Z,1.50
2018-03-16T23:12:44.046Z,2.28
2018-03-16T23:15:12.771Z,1.45
2018-03-16T23:17:41.086Z,1.98
2018-03-16T23:20:09.418Z,1.75
2018-03-16T23:22:37.908Z,2.15
2018-03-16T23:25:06.684Z,2.17
2018-03-16T23:27:34.980Z,1.65
2018-03-16T23:30:03.579Z,1.45
2018-03-16T23:32:32.150Z,2.08
2018-03-16T23:35:01.161Z,1.20
2018-03-16T23:37:29.641Z,1.95
2018-03-16T23:39:58.375Z,1.52
2018-03-16T23:42:27.662Z,2.75
2018-03-16T23:44:56.208Z,0.90
2018-03-16T23:47:25.237Z,1.35
2018-03-16T23:49:53.804Z,1.00
2018-03-16T23:52:23.811Z,1.65
2018-03-16T23:54:52.250Z,2.72
2018-03-16T23:57:20.596Z,1.00
2018-03-16T23:59:49.931Z,2.08
